createdAt,value
2019-03-22T00:00:50.719Z,0
2019-03-22T00:01:50.433Z,0
2019-03-22T00:02:50.717Z,0
2019-03-22T00:03:50.652Z,0
2019-03-22T00:04:50.147Z,0
2019-03-22T00:05:50.623Z,0
2019-03-22T00:06:50.605Z,0
2019-03-22T00:07:53.408Z,0
2019-03-22T00:08:50.570Z,0
2019-03-22T00:09:50.561Z,0
2019-03-22T00:10:50.290Z,0
2019-03-22T00:11:50.276Z,0
2019-03-22T00:12:50.529Z,0
2019-03-22T00:13:50.501Z,0
2019-03-22T00:14:50.225Z,0
2019-03-22T00:15:50.470Z,0
2019-03-22T00:16:50.193Z,0
2019-03-22T00:17:50.425Z,0
2019-03-22T00:18:50.410Z,0
2019-03-22T00:19:55.632Z,0
2019-03-22T00:20:49.890Z,0
2019-03-22T00:21:50.365Z,0
2019-03-22T00:22:50.106Z,0
2019-03-22T00:23:50.329Z,0
2019-03-22T00:24:50.318Z,0
2019-03-22T00:25:50.058Z,0
2019-03-22T00:26:50.288Z,0
2019-03-22T00:27:50.018Z,0
2019-03-22T00:28:50.006Z,0
2019-03-22T00:29:50.302Z,0
2019-03-22T00:30:49.978Z,0
2019-03-22T00:31:49.952Z,0
2019-03-22T00:32:50.181Z,0
2019-03-22T00:33:50.169Z,0
2019-03-22T00:34:50.149Z,0
2019-03-22T00:35:49.891Z,0
2019-03-22T00:36:50.120Z,0
2019-03-22T00:37:50.105Z,0
2019-03-22T00:38:50.088Z,0
2019-03-22T00:39:50.085Z,0
2019-03-22T00:40:50.057Z,0
2019-03-22T00:41:50.033Z,0
2019-03-22T00:42:50.026Z,0
2019-03-22T00:43:50.002Z,0
2019-03-22T00:44:49.990Z,0
2019-03-22T00:45:49.968Z,0
2019-03-22T00:46:49.955Z,0
2019-03-22T00:47:49.695Z,0
2019-03-22T00:48:49.686Z,0
2019-03-22T00:49:49.905Z,0
2019-03-22T00:50:49.892Z,0
2019-03-22T00:51:49.630Z,0
2019-03-22T00:52:49.857Z,0
2019-03-22T00:53:50.098Z,0
2019-03-22T00:54:49.572Z,0
2019-03-22T00:55:49.802Z,0
2019-03-22T00:56:49.547Z,0
2019-03-22T00:57:50.210Z,0
2019-03-22T00:58:49.763Z,0
2019-03-22T00:59:49.741Z,0
2019-03-22T01:00:52.153Z,0
2019-03-22T01:01:49.758Z,0
2019-03-22T01:02:49.694Z,0
2019-03-22T01:03:49.711Z,0
2019-03-22T01:04:49.408Z,0
2019-03-22T01:05:49.396Z,0
2019-03-22T01:06:49.688Z,0
2019-03-22T01:07:49.619Z,0
2019-03-22T01:08:49.592Z,0
2019-03-22T01:09:49.330Z,0
2019-03-22T01:10:49.310Z,0
2019-03-22T01:11:49.544Z,0
2019-03-22T01:12:49.528Z,0
2019-03-22T01:13:49.513Z,0
2019-03-22T01:14:49.248Z,0
2019-03-22T01:15:49.486Z,0
2019-03-22T01:16:49.454Z,0
2019-03-22T01:17:49.451Z,0
2019-03-22T01:18:49.191Z,0
2019-03-22T01:19:49.161Z,0
2019-03-22T01:20:49.153Z,0
2019-03-22T01:21:49.384Z,0
2019-03-22T01:22:49.370Z,0
2019-03-22T01:23:49.345Z,0
2019-03-22T01:24:49.325Z,0
2019-03-22T01:25:49.316Z,0
2019-03-22T01:26:49.314Z,0
2019-03-22T01:27:50.902Z,0
2019-03-22T01:28:49.515Z,0
2019-03-22T01:29:49.016Z,0
2019-03-22T01:30:49.244Z,0
2019-03-22T01:31:49.224Z,0
2019-03-22T01:32:49.200Z,0
2019-03-22T01:33:49.177Z,0
2019-03-22T01:34:49.167Z,0
2019-03-22T01:35:49.151Z,0
2019-03-22T01:36:48.883Z,0
2019-03-22T01:37:49.176Z,0
2019-03-22T01:38:48.844Z,0
2019-03-22T01:39:49.079Z,0
2019-03-22T01:40:48.817Z,0
2019-03-22T01:41:48.817Z,0
2019-03-22T01:42:49.042Z,0
2019-03-22T01:43:49.031Z,0
2019-03-22T01:44:49.004Z,0
2019-03-22T01:45:48.978Z,0
2019-03-22T01:46:48.477Z,0
2019-03-22T01:47:48.963Z,0
2019-03-22T01:48:48.933Z,0
2019-03-22T01:49:48.939Z,0
2019-03-22T01:50:48.655Z,0
2019-03-22T01:51:48.888Z,0
2019-03-22T01:52:48.623Z,0
2019-03-22T01:53:48.858Z,0
2019-03-22T01:54:48.844Z,0
2019-03-22T01:55:48.572Z,0
2019-03-22T01:56:48.554Z,0
2019-03-22T01:58:00.262Z,0
2019-03-22T01:58:48.778Z,0
2019-03-22T01:59:48.762Z,0
2019-03-22T02:00:48.746Z,0
2019-03-22T02:01:48.723Z,0
2019-03-22T02:02:48.484Z,0
2019-03-22T02:03:48.713Z,0
2019-03-22T02:04:48.743Z,0
2019-03-22T02:05:48.419Z,0
2019-03-22T02:06:48.632Z,0
2019-03-22T02:07:48.382Z,0
2019-03-22T02:08:48.363Z,0
2019-03-22T02:09:48.598Z,0
2019-03-22T02:10:48.572Z,0
2019-03-22T02:11:48.549Z,0
2019-03-22T02:12:48.551Z,0
2019-03-22T02:13:48.288Z,0
2019-03-22T02:14:48.498Z,0
2019-03-22T02:15:48.248Z,0
2019-03-22T02:16:48.476Z,0
2019-03-22T02:17:48.218Z,0
2019-03-22T02:18:48.446Z,0
2019-03-22T02:19:48.472Z,0
2019-03-22T02:20:48.409Z,0
2019-03-22T02:21:48.143Z,0
2019-03-22T02:22:48.386Z,0
2019-03-22T02:23:48.108Z,0
2019-03-22T02:24:48.348Z,0
2019-03-22T02:25:48.077Z,0
2019-03-22T02:26:48.318Z,0
2019-03-22T02:27:47.810Z,0
2019-03-22T02:28:48.270Z,0
2019-03-22T02:29:49.259Z,0
2019-03-22T02:30:48.264Z,0
2019-03-22T02:31:48.232Z,0
2019-03-22T02:32:48.219Z,0
2019-03-22T02:33:47.971Z,0
2019-03-22T02:34:48.196Z,0
2019-03-22T02:35:48.180Z,0
2019-03-22T02:36:48.172Z,0
2019-03-22T02:37:48.208Z,0
2019-03-22T02:38:48.116Z,0
2019-03-22T02:39:50.460Z,0
2019-03-22T02:40:48.107Z,0
2019-03-22T02:41:47.840Z,0
2019-03-22T02:42:48.162Z,0
2019-03-22T02:43:48.038Z,0
2019-03-22T02:44:48.018Z,0
2019-03-22T02:45:48.014Z,0
2019-03-22T02:46:48.017Z,0
2019-03-22T02:47:47.814Z,0
2019-03-22T02:48:47.948Z,0
2019-03-22T02:49:47.938Z,0
2019-03-22T02:50:47.677Z,0
2019-03-22T02:51:47.923Z,0
2019-03-22T02:52:47.904Z,0
2019-03-22T02:53:47.897Z,0
2019-03-22T02:54:47.863Z,0
2019-03-22T02:55:48.094Z,0
2019-03-22T02:56:47.828Z,0
2019-03-22T02:57:47.847Z,0
2019-03-22T02:58:47.564Z,0
2019-03-22T02:59:47.652Z,0
2019-03-22T03:00:47.782Z,0
2019-03-22T03:01:47.746Z,0
2019-03-22T03:02:47.486Z,0
2019-03-22T03:03:47.699Z,0
2019-03-22T03:04:47.706Z,0
2019-03-22T03:05:47.428Z,0
2019-03-22T03:06:47.668Z,0
2019-03-22T03:07:47.729Z,0
2019-03-22T03:08:47.484Z,0
2019-03-22T03:09:47.615Z,0
2019-03-22T03:10:47.338Z,0
2019-03-22T03:11:47.575Z,0
2019-03-22T03:12:47.317Z,0
2019-03-22T03:13:47.652Z,0
2019-03-22T03:14:47.552Z,0
2019-03-22T03:15:47.517Z,0
2019-03-22T03:16:47.487Z,0
2019-03-22T03:17:47.255Z,0
2019-03-22T03:18:47.453Z,0
2019-03-22T03:19:47.557Z,0
2019-03-22T03:20:47.432Z,0
2019-03-22T03:21:47.194Z,0
2019-03-22T03:22:47.398Z,0
2019-03-22T03:23:47.374Z,0
2019-03-22T03:24:47.365Z,0
2019-03-22T03:25:47.095Z,0
2019-03-22T03:26:46.830Z,0
2019-03-22T03:27:47.355Z,0
2019-03-22T03:28:47.373Z,0
2019-03-22T03:29:47.277Z,0
2019-03-22T03:30:47.090Z,0
2019-03-22T03:31:47.325Z,0
2019-03-22T03:32:46.762Z,0
2019-03-22T03:33:47.326Z,0
2019-03-22T03:34:47.227Z,0
2019-03-22T03:35:47.190Z,0
2019-03-22T03:36:46.981Z,0
2019-03-22T03:37:47.165Z,0
2019-03-22T03:38:47.269Z,0
2019-03-22T03:39:47.102Z,0
2019-03-22T03:40:47.119Z,0
2019-03-22T03:41:46.675Z,0
2019-03-22T03:42:47.099Z,0
2019-03-22T03:43:47.044Z,0
2019-03-22T03:44:47.030Z,0
2019-03-22T03:45:46.791Z,0
2019-03-22T03:46:47.073Z,0
2019-03-22T03:47:47.060Z,0
2019-03-22T03:48:46.740Z,0
2019-03-22T03:49:46.945Z,0
2019-03-22T03:50:46.699Z,0
2019-03-22T03:51:46.421Z,0
2019-03-22T03:52:49.127Z,0
2019-03-22T03:53:46.871Z,0
2019-03-22T03:54:46.890Z,0
2019-03-22T03:55:46.852Z,0
2019-03-22T03:56:46.628Z,0
2019-03-22T03:57:46.881Z,0
2019-03-22T03:59:01.827Z,0
2019-03-22T03:59:46.530Z,0
2019-03-22T04:00:46.789Z,0
2019-03-22T04:01:46.543Z,0
2019-03-22T04:02:46.715Z,0
2019-03-22T04:03:46.701Z,0
2019-03-22T04:04:46.682Z,0
2019-03-22T04:05:46.453Z,0
2019-03-22T04:06:46.686Z,0
2019-03-22T04:07:46.401Z,0
2019-03-22T04:08:46.632Z,0
2019-03-22T04:09:46.610Z,0
2019-03-22T04:10:46.131Z,0
2019-03-22T04:11:46.325Z,0
2019-03-22T04:12:46.569Z,0
2019-03-22T04:13:46.544Z,0
2019-03-22T04:14:46.532Z,0
2019-03-22T04:15:46.312Z,0
2019-03-22T04:16:46.237Z,0
2019-03-22T04:17:46.237Z,0
2019-03-22T04:18:46.469Z,0
2019-03-22T04:19:46.184Z,0
2019-03-22T04:20:46.410Z,0
2019-03-22T04:21:46.424Z,0
2019-03-22T04:22:46.424Z,0
2019-03-22T04:23:46.124Z,0
2019-03-22T04:24:46.399Z,0
2019-03-22T04:25:46.083Z,0
2019-03-22T04:26:46.310Z,0
2019-03-22T04:27:46.336Z,0
2019-03-22T04:28:46.059Z,0
2019-03-22T04:29:46.312Z,0
2019-03-22T04:30:46.004Z,0
2019-03-22T04:31:46.233Z,0
2019-03-22T04:32:46.222Z,0
2019-03-22T04:33:46.241Z,0
2019-03-22T04:34:45.943Z,0
2019-03-22T04:35:45.980Z,0
2019-03-22T04:36:45.693Z,0
2019-03-22T04:37:46.131Z,0
2019-03-22T04:38:45.880Z,0
2019-03-22T04:39:45.852Z,0
2019-03-22T04:40:46.072Z,0
2019-03-22T04:41:46.074Z,0
2019-03-22T04:42:45.849Z,0
2019-03-22T04:43:46.028Z,0
2019-03-22T04:44:46.003Z,0
2019-03-22T04:45:45.747Z,0
2019-03-22T04:46:45.979Z,0
2019-03-22T04:47:48.429Z,0
2019-03-22T04:48:45.937Z,0
2019-03-22T04:49:45.916Z,0
2019-03-22T04:50:45.896Z,0
2019-03-22T04:51:45.638Z,0
2019-03-22T04:52:45.646Z,0
2019-03-22T04:53:45.861Z,0
2019-03-22T04:54:45.839Z,0
2019-03-22T04:55:45.576Z,0
2019-03-22T04:56:45.563Z,0
2019-03-22T04:57:45.787Z,0
2019-03-22T04:58:46.827Z,0
2019-03-22T04:59:45.754Z,0
2019-03-22T05:00:45.781Z,0
2019-03-22T05:01:45.719Z,0
2019-03-22T05:02:45.487Z,5
2019-03-22T05:03:45.685Z,5
2019-03-22T05:04:45.441Z,5
2019-03-22T05:05:45.653Z,5
2019-03-22T05:06:45.630Z,5
2019-03-22T05:07:45.378Z,5
2019-03-22T05:08:45.612Z,5
2019-03-22T05:09:45.582Z,5
2019-03-22T05:10:46.021Z,5
2019-03-22T05:11:45.551Z,5
2019-03-22T05:12:45.534Z,5
2019-03-22T05:13:45.581Z,5
2019-03-22T05:14:45.258Z,10
2019-03-22T05:15:45.244Z,10
2019-03-22T05:16:45.468Z,10
2019-03-22T05:17:45.197Z,10
2019-03-22T05:18:46.501Z,10
2019-03-22T05:19:45.421Z,10
2019-03-22T05:20:45.403Z,15
2019-03-22T05:21:45.384Z,15
2019-03-22T05:22:45.120Z,15
2019-03-22T05:23:45.349Z,15
2019-03-22T05:24:45.354Z,20
2019-03-22T05:25:45.076Z,20
2019-03-22T05:26:45.305Z,20
2019-03-22T05:27:45.279Z,25
2019-03-22T05:28:45.021Z,25
2019-03-22T05:29:45.941Z,25
2019-03-22T05:30:45.242Z,30
2019-03-22T05:31:45.190Z,30
2019-03-22T05:32:44.954Z,30
2019-03-22T05:33:44.933Z,35
2019-03-22T05:34:44.690Z,35
2019-03-22T05:35:45.154Z,35
2019-03-22T05:36:44.643Z,40
2019-03-22T05:37:44.624Z,40
2019-03-22T05:38:45.109Z,40
2019-03-22T05:39:45.090Z,45
2019-03-22T05:40:45.063Z,45
2019-03-22T05:41:45.060Z,45
2019-03-22T05:42:45.046Z,50
2019-03-22T05:43:45.027Z,50
2019-03-22T05:44:45.015Z,50
2019-03-22T05:45:44.987Z,50
2019-03-22T05:46:44.718Z,55
2019-03-22T05:47:44.711Z,55
2019-03-22T05:48:44.453Z,55
2019-03-22T05:49:44.671Z,55
2019-03-22T05:50:44.657Z,55
2019-03-22T05:51:44.883Z,60
2019-03-22T05:52:44.871Z,60
2019-03-22T05:53:44.861Z,60
2019-03-22T05:54:44.839Z,60
2019-03-22T05:55:44.584Z,65
2019-03-22T05:56:44.809Z,65
2019-03-22T05:57:44.796Z,65
2019-03-22T05:58:44.773Z,65
2019-03-22T05:59:52.077Z,70
2019-03-22T06:00:44.747Z,70
2019-03-22T06:01:47.636Z,70
2019-03-22T06:02:44.711Z,70
2019-03-22T06:03:44.693Z,70
2019-03-22T06:04:44.431Z,75
2019-03-22T06:05:44.414Z,75
2019-03-22T06:06:44.649Z,75
2019-03-22T06:07:46.322Z,80
2019-03-22T06:08:44.618Z,80
2019-03-22T06:09:44.615Z,80
2019-03-22T06:10:44.579Z,85
2019-03-22T06:11:44.324Z,85
2019-03-22T06:12:44.545Z,85
2019-03-22T06:13:46.853Z,90
2019-03-22T06:14:44.518Z,90
2019-03-22T06:15:44.269Z,90
2019-03-22T06:16:44.480Z,95
2019-03-22T06:17:55.894Z,95
2019-03-22T06:18:44.448Z,95
2019-03-22T06:19:44.189Z,100
2019-03-22T06:20:44.428Z,100
2019-03-22T06:21:44.421Z,105
2019-03-22T06:22:44.390Z,105
2019-03-22T06:23:44.372Z,105
2019-03-22T06:24:44.367Z,105
2019-03-22T06:25:44.107Z,105
2019-03-22T06:26:44.340Z,110
2019-03-22T06:27:44.078Z,105
2019-03-22T06:28:44.295Z,110
2019-03-22T06:29:55.907Z,105
2019-03-22T06:30:44.273Z,105
2019-03-22T06:31:44.251Z,105
2019-03-22T06:32:43.985Z,100
2019-03-22T06:33:43.997Z,100
2019-03-22T06:34:44.221Z,100
2019-03-22T06:35:44.185Z,95
2019-03-22T06:36:44.181Z,95
2019-03-22T06:37:44.168Z,95
2019-03-22T06:38:44.157Z,95
2019-03-22T06:39:44.136Z,95
2019-03-22T06:40:43.623Z,95
2019-03-22T06:41:44.165Z,95
2019-03-22T06:42:44.162Z,95
2019-03-22T06:43:44.080Z,90
2019-03-22T06:44:44.091Z,90
2019-03-22T06:45:44.039Z,90
2019-03-22T06:46:44.031Z,90
2019-03-22T06:47:44.010Z,90
2019-03-22T06:48:43.755Z,90
2019-03-22T06:49:43.989Z,90
2019-03-22T06:50:43.721Z,90
2019-03-22T06:51:43.711Z,90
2019-03-22T06:52:43.692Z,90
2019-03-22T06:53:43.687Z,85
2019-03-22T06:54:43.913Z,85
2019-03-22T06:55:43.898Z,85
2019-03-22T06:56:43.887Z,90
2019-03-22T06:57:43.872Z,90
2019-03-22T06:58:43.853Z,90
2019-03-22T06:59:43.859Z,95
2019-03-22T07:00:43.914Z,95
2019-03-22T07:01:43.327Z,100
2019-03-22T07:02:43.803Z,100
2019-03-22T07:03:43.805Z,105
2019-03-22T07:04:43.781Z,105
2019-03-22T07:05:43.772Z,105
2019-03-22T07:06:43.259Z,105
2019-03-22T07:07:43.231Z,100
2019-03-22T07:08:43.710Z,105
2019-03-22T07:09:43.699Z,105
2019-03-22T07:10:43.446Z,105
2019-03-22T07:11:46.545Z,105
2019-03-22T07:12:43.668Z,105
2019-03-22T07:13:43.643Z,105
2019-03-22T07:14:43.633Z,105
2019-03-22T07:15:43.376Z,105
2019-03-22T07:16:43.356Z,105
2019-03-22T07:17:43.597Z,100
2019-03-22T07:18:43.332Z,105
2019-03-22T07:19:43.559Z,105
2019-03-22T07:20:43.550Z,100
2019-03-22T07:21:43.534Z,105
2019-03-22T07:22:43.529Z,105
2019-03-22T07:23:43.506Z,105
2019-03-22T07:24:43.505Z,105
2019-03-22T07:25:43.481Z,105
2019-03-22T07:26:43.548Z,105
2019-03-22T07:27:43.506Z,105
2019-03-22T07:28:43.439Z,105
2019-03-22T07:29:43.187Z,105
2019-03-22T07:30:43.169Z,105
2019-03-22T07:31:45.469Z,105
2019-03-22T07:32:43.143Z,105
2019-03-22T07:33:43.369Z,105
2019-03-22T07:34:43.368Z,105
2019-03-22T07:35:43.354Z,105
2019-03-22T07:36:43.335Z,105
2019-03-22T07:37:43.324Z,105
2019-03-22T07:38:43.074Z,100
2019-03-22T07:39:43.300Z,105
2019-03-22T07:40:43.278Z,100
2019-03-22T07:41:43.037Z,105
2019-03-22T07:42:43.415Z,105
2019-03-22T07:43:43.249Z,105
2019-03-22T07:44:43.239Z,110
2019-03-22T07:45:42.965Z,110
2019-03-22T07:46:43.211Z,110
2019-03-22T07:47:43.193Z,110
2019-03-22T07:48:42.946Z,110
2019-03-22T07:49:43.197Z,110
2019-03-22T07:50:43.166Z,115
2019-03-22T07:51:43.146Z,115
2019-03-22T07:52:43.134Z,115
2019-03-22T07:53:43.126Z,115
2019-03-22T07:54:43.112Z,115
2019-03-22T07:55:42.853Z,115
2019-03-22T07:56:43.083Z,120
2019-03-22T07:57:43.067Z,120
2019-03-22T07:58:43.061Z,120
2019-03-22T07:59:42.808Z,120
2019-03-22T08:00:43.031Z,120
2019-03-22T08:01:42.776Z,125
2019-03-22T08:02:43.014Z,125
2019-03-22T08:03:42.996Z,125
2019-03-22T08:04:42.982Z,120
2019-03-22T08:05:53.402Z,120
2019-03-22T08:06:42.725Z,125
2019-03-22T08:07:42.703Z,125
2019-03-22T08:08:42.698Z,125
2019-03-22T08:09:43.216Z,125
2019-03-22T08:10:42.964Z,125
2019-03-22T08:11:42.950Z,125
2019-03-22T08:12:42.893Z,125
2019-03-22T08:13:42.899Z,125
2019-03-22T08:14:42.922Z,125
2019-03-22T08:15:42.869Z,125
2019-03-22T08:16:42.895Z,125
2019-03-22T08:17:42.872Z,125
2019-03-22T08:18:42.890Z,125
2019-03-22T08:19:42.926Z,130
2019-03-22T08:20:45.872Z,130
2019-03-22T08:21:42.594Z,125
2019-03-22T08:22:42.854Z,130
2019-03-22T08:23:42.599Z,125
2019-03-22T08:24:42.855Z,125
2019-03-22T08:25:43.600Z,130
2019-03-22T08:26:42.569Z,130
2019-03-22T08:27:42.561Z,130
2019-03-22T08:28:42.797Z,130
2019-03-22T08:29:42.746Z,130
2019-03-22T08:30:52.564Z,130
2019-03-22T08:31:42.804Z,130
2019-03-22T08:32:42.771Z,130
2019-03-22T08:33:42.698Z,130
2019-03-22T08:34:42.222Z,130
2019-03-22T08:35:42.706Z,130
2019-03-22T08:36:42.724Z,130
2019-03-22T08:37:54.408Z,130
2019-03-22T08:38:42.693Z,130
2019-03-22T08:39:42.645Z,130
2019-03-22T08:40:42.415Z,130
2019-03-22T08:41:42.641Z,130
2019-03-22T08:42:42.688Z,130
2019-03-22T08:43:42.656Z,135
2019-03-22T08:44:42.716Z,130
2019-03-22T08:45:42.628Z,135
2019-03-22T08:46:44.835Z,130
2019-03-22T08:47:44.253Z,135
2019-03-22T08:48:42.700Z,135
2019-03-22T08:49:43.758Z,135
2019-03-22T08:50:42.526Z,135
2019-03-22T08:51:42.559Z,140
2019-03-22T08:52:42.566Z,140
2019-03-22T08:53:54.548Z,140
2019-03-22T08:54:45.555Z,145
2019-03-22T08:55:42.500Z,145
2019-03-22T08:56:45.465Z,145
2019-03-22T08:57:42.237Z,145
2019-03-22T08:58:42.528Z,150
2019-03-22T08:59:42.443Z,150
2019-03-22T09:01:02.257Z,150
2019-03-22T09:01:42.460Z,150
2019-03-22T09:02:42.231Z,155
2019-03-22T09:03:42.239Z,155
2019-03-22T09:04:42.478Z,155
2019-03-22T09:05:42.423Z,155
2019-03-22T09:06:42.517Z,155
2019-03-22T09:07:42.377Z,155
2019-03-22T09:08:42.243Z,160
2019-03-22T09:09:51.022Z,165
2019-03-22T09:10:42.405Z,165
2019-03-22T09:11:42.529Z,165
2019-03-22T09:12:42.399Z,165
2019-03-22T09:13:42.387Z,165
2019-03-22T09:14:41.880Z,165
2019-03-22T09:15:50.663Z,160
2019-03-22T09:16:42.130Z,160
2019-03-22T09:17:42.203Z,160
2019-03-22T09:18:42.462Z,160
2019-03-22T09:19:42.405Z,160
2019-03-22T09:20:42.386Z,160
2019-03-22T09:21:42.442Z,160
2019-03-22T09:22:42.296Z,160
2019-03-22T09:23:42.377Z,160
2019-03-22T09:24:48.965Z,160
2019-03-22T09:25:42.321Z,155
2019-03-22T09:26:54.844Z,155
2019-03-22T09:27:43.907Z,155
2019-03-22T09:28:42.311Z,150
2019-03-22T09:29:42.000Z,150
2019-03-22T09:30:42.049Z,145
2019-03-22T09:31:42.251Z,145
2019-03-22T09:32:42.275Z,135
2019-03-22T09:33:42.243Z,135
2019-03-22T09:34:43.651Z,130
2019-03-22T09:35:41.995Z,130
2019-03-22T09:36:42.228Z,125
2019-03-22T09:37:42.243Z,125
2019-03-22T09:38:42.249Z,120
2019-03-22T09:39:42.192Z,120
2019-03-22T09:40:42.267Z,120
2019-03-22T09:41:41.935Z,115
2019-03-22T09:42:42.311Z,115
2019-03-22T09:43:41.953Z,115
2019-03-22T09:44:52.832Z,115
2019-03-22T09:45:42.102Z,115
2019-03-22T09:46:41.860Z,115
2019-03-22T09:47:41.637Z,115
2019-03-22T09:48:42.132Z,115
2019-03-22T09:49:42.135Z,120
2019-03-22T09:50:42.160Z,115
2019-03-22T09:51:42.052Z,115
2019-03-22T09:52:43.373Z,120
2019-03-22T09:53:42.118Z,120
2019-03-22T09:54:42.072Z,120
2019-03-22T09:55:41.671Z,125
2019-03-22T09:56:53.930Z,125
2019-03-22T09:57:42.105Z,125
2019-03-22T09:58:42.187Z,125
2019-03-22T09:59:42.094Z,125
2019-03-22T10:00:42.199Z,125
2019-03-22T10:01:42.029Z,120
2019-03-22T10:02:42.059Z,120
2019-03-22T10:03:45.000Z,120
2019-03-22T10:04:42.116Z,120
2019-03-22T10:05:42.048Z,120
2019-03-22T10:06:42.081Z,120
2019-03-22T10:07:41.768Z,120
2019-03-22T10:08:41.967Z,120
2019-03-22T10:09:42.050Z,120
2019-03-22T10:10:42.048Z,120
2019-03-22T10:11:41.971Z,120
2019-03-22T10:12:41.680Z,120
2019-03-22T10:13:41.752Z,120
2019-03-22T10:14:41.961Z,120
2019-03-22T10:15:41.707Z,120
2019-03-22T10:16:41.924Z,120
2019-03-22T10:17:41.954Z,120
2019-03-22T10:18:44.113Z,120
2019-03-22T10:19:44.521Z,120
2019-03-22T10:20:41.950Z,120
2019-03-22T10:21:41.897Z,120
2019-03-22T10:22:41.919Z,125
2019-03-22T10:23:42.031Z,125
2019-03-22T10:24:41.929Z,125
2019-03-22T10:25:41.891Z,125
2019-03-22T10:26:41.911Z,125
2019-03-22T10:27:41.831Z,125
2019-03-22T10:28:41.637Z,125
2019-03-22T10:29:41.866Z,125
2019-03-22T10:30:41.708Z,125
2019-03-22T10:31:47.273Z,125
2019-03-22T10:32:41.479Z,125
2019-03-22T10:33:41.898Z,125
2019-03-22T10:34:44.557Z,125
2019-03-22T10:35:41.844Z,125
2019-03-22T10:36:41.934Z,125
2019-03-22T10:37:41.879Z,125
2019-03-22T10:38:41.649Z,125
2019-03-22T10:39:41.832Z,125
2019-03-22T10:40:41.857Z,125
2019-03-22T10:41:41.561Z,125
2019-03-22T10:42:41.780Z,125
2019-03-22T10:43:41.903Z,130
2019-03-22T10:44:44.323Z,130
2019-03-22T10:45:41.809Z,130
2019-03-22T10:46:41.572Z,130
2019-03-22T10:47:41.754Z,135
2019-03-22T10:48:43.311Z,135
2019-03-22T10:49:44.477Z,140
2019-03-22T10:50:41.749Z,140
2019-03-22T10:51:41.548Z,140
2019-03-22T10:52:41.711Z,145
2019-03-22T10:53:41.454Z,150
2019-03-22T10:54:41.693Z,150
2019-03-22T10:55:44.983Z,155
2019-03-22T10:56:41.594Z,155
2019-03-22T10:57:44.940Z,155
2019-03-22T10:58:41.347Z,155
2019-03-22T10:59:41.575Z,155
2019-03-22T11:00:41.339Z,155
2019-03-22T11:02:10.185Z,145
2019-03-22T11:02:41.659Z,140
2019-03-22T11:03:41.857Z,140
2019-03-22T11:04:41.542Z,135
2019-03-22T11:05:41.536Z,140
2019-03-22T11:06:41.539Z,135
2019-03-22T11:07:41.286Z,135
2019-03-22T11:08:41.284Z,130
2019-03-22T11:09:41.510Z,130
2019-03-22T11:10:41.509Z,130
2019-03-22T11:11:41.517Z,125
2019-03-22T11:12:41.534Z,125
2019-03-22T11:13:41.502Z,125
2019-03-22T11:14:41.478Z,120
2019-03-22T11:15:50.834Z,120
2019-03-22T11:16:41.469Z,115
2019-03-22T11:17:41.465Z,115
2019-03-22T11:18:46.937Z,115
2019-03-22T11:19:41.450Z,115
2019-03-22T11:20:41.209Z,115
2019-03-22T11:21:41.441Z,115
2019-03-22T11:22:41.437Z,115
2019-03-22T11:23:41.431Z,120
2019-03-22T11:24:41.179Z,120
2019-03-22T11:25:41.180Z,120
2019-03-22T11:26:41.415Z,120
2019-03-22T11:27:41.400Z,120
2019-03-22T11:28:41.408Z,120
2019-03-22T11:29:41.399Z,120
2019-03-22T11:30:41.440Z,120
2019-03-22T11:31:48.902Z,120
2019-03-22T11:32:42.967Z,120
2019-03-22T11:33:41.388Z,120
2019-03-22T11:34:41.382Z,115
2019-03-22T11:35:42.001Z,120
2019-03-22T11:36:40.862Z,120
2019-03-22T11:37:41.336Z,120
2019-03-22T11:38:41.333Z,120
2019-03-22T11:39:41.333Z,120
2019-03-22T11:40:40.842Z,120
2019-03-22T11:41:41.318Z,120
2019-03-22T11:42:41.306Z,120
2019-03-22T11:43:41.306Z,120
2019-03-22T11:44:41.307Z,120
2019-03-22T11:45:41.303Z,120
2019-03-22T11:46:41.048Z,120
2019-03-22T11:47:41.038Z,120
2019-03-22T11:48:41.045Z,120
2019-03-22T11:49:41.272Z,120
2019-03-22T11:50:41.269Z,120
2019-03-22T11:51:42.502Z,120
2019-03-22T11:52:41.259Z,120
2019-03-22T11:53:41.258Z,120
2019-03-22T11:54:41.255Z,120
2019-03-22T11:55:41.242Z,120
2019-03-22T11:56:41.235Z,120
2019-03-22T11:57:41.234Z,120
2019-03-22T11:58:41.232Z,120
2019-03-22T11:59:41.221Z,120
2019-03-22T12:00:41.210Z,120
2019-03-22T12:01:40.974Z,120
2019-03-22T12:02:41.204Z,120
2019-03-22T12:03:41.203Z,120
2019-03-22T12:04:40.700Z,120
2019-03-22T12:05:49.744Z,115
2019-03-22T12:06:41.177Z,115
2019-03-22T12:07:41.172Z,115
2019-03-22T12:08:41.169Z,115
2019-03-22T12:09:40.914Z,115
2019-03-22T12:10:41.162Z,115
2019-03-22T12:11:42.128Z,115
2019-03-22T12:12:41.148Z,115
2019-03-22T12:13:41.868Z,115
2019-03-22T12:14:41.133Z,115
2019-03-22T12:15:40.897Z,115
2019-03-22T12:16:41.126Z,115
2019-03-22T12:17:41.120Z,115
2019-03-22T12:18:40.617Z,115
2019-03-22T12:19:41.108Z,115
2019-03-22T12:20:41.105Z,115
2019-03-22T12:21:40.846Z,115
2019-03-22T12:22:43.007Z,115
2019-03-22T12:23:41.103Z,115
2019-03-22T12:24:41.080Z,115
2019-03-22T12:25:41.078Z,115
2019-03-22T12:26:40.827Z,115
2019-03-22T12:27:46.025Z,115
2019-03-22T12:28:41.086Z,115
2019-03-22T12:29:41.468Z,115
2019-03-22T12:30:41.063Z,115
2019-03-22T12:31:41.062Z,115
2019-03-22T12:32:41.409Z,115
2019-03-22T12:33:40.778Z,115
2019-03-22T12:34:41.028Z,115
2019-03-22T12:35:42.591Z,120
2019-03-22T12:36:41.033Z,120
2019-03-22T12:37:40.763Z,120
2019-03-22T12:38:40.783Z,115
2019-03-22T12:39:41.957Z,115
2019-03-22T12:40:41.000Z,115
2019-03-22T12:41:40.986Z,115
2019-03-22T12:42:40.988Z,115
2019-03-22T12:43:40.912Z,115
2019-03-22T12:44:40.996Z,115
2019-03-22T12:45:40.982Z,115
2019-03-22T12:46:40.996Z,115
2019-03-22T12:47:40.710Z,115
2019-03-22T12:48:40.716Z,115
2019-03-22T12:49:41.525Z,115
2019-03-22T12:50:40.942Z,115
2019-03-22T12:51:40.441Z,115
2019-03-22T12:52:40.951Z,115
2019-03-22T12:53:40.929Z,115
2019-03-22T12:54:40.944Z,115
2019-03-22T12:55:40.927Z,115
2019-03-22T12:56:40.914Z,115
2019-03-22T12:57:40.910Z,115
2019-03-22T12:58:40.904Z,115
2019-03-22T12:59:40.899Z,115
2019-03-22T13:00:40.395Z,115
2019-03-22T13:01:40.396Z,115
2019-03-22T13:02:49.261Z,115
2019-03-22T13:03:40.874Z,115
2019-03-22T13:04:40.879Z,120
2019-03-22T13:05:40.869Z,120
2019-03-22T13:06:40.609Z,120
2019-03-22T13:07:40.854Z,125
2019-03-22T13:08:40.793Z,120
2019-03-22T13:09:40.845Z,120
2019-03-22T13:10:40.840Z,120
2019-03-22T13:11:40.841Z,120
2019-03-22T13:12:40.829Z,120
2019-03-22T13:13:40.817Z,120
2019-03-22T13:14:40.821Z,115
2019-03-22T13:15:40.587Z,115
2019-03-22T13:16:40.821Z,115
2019-03-22T13:17:40.804Z,120
2019-03-22T13:18:52.450Z,115
2019-03-22T13:19:40.815Z,115
2019-03-22T13:20:40.786Z,115
2019-03-22T13:21:40.781Z,115
2019-03-22T13:22:40.774Z,115
2019-03-22T13:23:40.524Z,115
2019-03-22T13:24:40.814Z,115
2019-03-22T13:25:40.292Z,115
2019-03-22T13:26:40.760Z,115
2019-03-22T13:27:40.518Z,115
2019-03-22T13:28:40.746Z,115
2019-03-22T13:29:40.744Z,115
2019-03-22T13:30:40.743Z,115
2019-03-22T13:31:40.497Z,115
2019-03-22T13:32:40.765Z,115
2019-03-22T13:33:40.983Z,115
2019-03-22T13:34:40.453Z,115
2019-03-22T13:35:40.617Z,115
2019-03-22T13:36:41.067Z,115
2019-03-22T13:37:41.050Z,115
2019-03-22T13:38:40.699Z,120
2019-03-22T13:39:40.442Z,120
2019-03-22T13:40:40.442Z,120
2019-03-22T13:41:40.691Z,120
2019-03-22T13:42:40.678Z,115
2019-03-22T13:43:40.724Z,120
2019-03-22T13:44:40.662Z,115
2019-03-22T13:45:40.660Z,120
2019-03-22T13:46:50.010Z,115
2019-03-22T13:47:40.419Z,120
2019-03-22T13:48:40.407Z,120
2019-03-22T13:49:40.663Z,125
2019-03-22T13:50:40.664Z,120
2019-03-22T13:51:40.628Z,115
2019-03-22T13:52:40.677Z,120
2019-03-22T13:53:40.627Z,115
2019-03-22T13:54:41.275Z,120
2019-03-22T13:55:40.758Z,120
2019-03-22T13:56:40.618Z,120
2019-03-22T13:57:40.361Z,120
2019-03-22T13:58:40.384Z,115
2019-03-22T13:59:40.646Z,110
2019-03-22T14:00:40.584Z,115
2019-03-22T14:01:40.587Z,115
2019-03-22T14:02:40.406Z,115
2019-03-22T14:03:42.717Z,110
2019-03-22T14:04:40.670Z,115
2019-03-22T14:05:40.570Z,115
2019-03-22T14:06:40.560Z,115
2019-03-22T14:07:40.563Z,120
2019-03-22T14:08:40.311Z,120
2019-03-22T14:09:40.539Z,125
2019-03-22T14:10:40.663Z,125